Time;durP1;ratioP1;P1;durP2;ratioP2;P2;SDS_P1;SDS_P2;PMS_P1;PMS_P2;Temp;Humidity;BMP_temperature;BMP_pressure;BME280_temperature;BME280_humidity;BME280_pressure;Samples;Min_cycle;Max_cycle;Signal;HPM_P1;HPM_P2
2022/03/30 00:01:35;;;;;;;32.72;19.48;;;5.60;99.90;;;;;;5003302;28;20458;-53
2022/03/30 00:04:03;;;;;;;32.55;21.77;;;5.70;99.90;;;;;;5002904;28;20208;-52
2022/03/30 00:06:30;;;;;;;36.28;19.65;;;5.60;99.90;;;;;;5002926;28;20241;-53
2022/03/30 00:08:57;;;;;;;32.40;20.25;;;5.60;99.90;;;;;;5003039;28;20204;-53
2022/03/30 00:11:24;;;;;;;33.78;20.45;;;5.50;99.90;;;;;;5002557;28;20401;-55
2022/03/30 00:13:51;;;;;;;36.13;23.38;;;5.60;99.90;;;;;;5002937;28;20251;-52
2022/03/30 00:16:19;;;;;;;35.15;22.73;;;5.60;99.90;;;;;;5002789;28;20289;-55
2022/03/30 00:18:46;;;;;;;34.15;21.15;;;5.50;99.90;;;;;;5003106;28;20215;-56
2022/03/30 00:21:13;;;;;;;31.52;21.15;;;5.50;99.90;;;;;;5002353;28;20243;-53
2022/03/30 00:23:40;;;;;;;39.25;23.10;;;5.40;99.90;;;;;;4989573;28;20437;-53
2022/03/30 00:26:08;;;;;;;34.60;22.20;;;5.40;99.90;;;;;;5001573;28;20214;-55
2022/03/30 00:28:35;;;;;;;40.67;21.67;;;5.40;99.90;;;;;;5002409;28;20286;-51
2022/03/30 00:31:02;;;;;;;30.25;21.75;;;5.30;99.90;;;;;;5002434;28;20276;-51
2022/03/30 00:33:29;;;;;;;33.20;23.92;;;5.40;99.90;;;;;;5002647;28;20197;-51
2022/03/30 00:35:56;;;;;;;32.60;20.30;;;5.20;99.90;;;;;;5002461;28;20527;-51
2022/03/30 00:38:23;;;;;;;40.17;21.45;;;5.20;99.90;;;;;;5002634;28;20247;-53
2022/03/30 00:40:50;;;;;;;33.38;23.27;;;5.10;99.90;;;;;;5002140;28;20247;-51
2022/03/30 00:43:17;;;;;;;32.30;20.85;;;5.10;99.90;;;;;;5002253;28;20404;-50
2022/03/30 00:45:44;;;;;;;37.72;20.98;;;5.10;99.90;;;;;;5002191;28;20562;-56
2022/03/30 00:48:12;;;;;;;37.88;22.90;;;5.10;99.90;;;;;;5001484;28;20209;-52
2022/03/30 00:50:39;;;;;;;32.80;21.13;;;5.10;99.90;;;;;;5002027;28;20393;-50
2022/03/30 00:53:06;;;;;;;38.33;22.58;;;5.10;99.90;;;;;;5003504;28;20239;-54
2022/03/30 00:55:34;;;;;;;35.65;20.75;;;5.10;99.90;;;;;;5002572;28;20708;-56
2022/03/30 00:58:02;;;;;;;37.15;22.58;;;5.00;99.90;;;;;;5002599;28;20214;-50
2022/03/30 01:00:29;;;;;;;31.95;20.85;;;5.00;99.90;;;;;;5002074;28;20356;-55
2022/03/30 01:02:57;;;;;;;36.75;21.25;;;5.00;99.90;;;;;;5002046;28;20302;-52
2022/03/30 01:05:24;;;;;;;35.08;22.95;;;5.00;99.90;;;;;;5002437;28;20260;-54
2022/03/30 01:07:51;;;;;;;30.80;19.58;;;4.90;99.90;;;;;;5005183;28;20223;-52
2022/03/30 01:10:19;;;;;;;34.65;21.45;;;4.90;99.90;;;;;;5001651;28;20660;-53
2022/03/30 01:12:48;;;;;;;38.53;21.83;;;4.90;99.90;;;;;;5001614;28;20334;-53
2022/03/30 01:15:15;;;;;;;37.88;23.35;;;5.00;99.90;;;;;;5001513;28;20219;-53
2022/03/30 01:17:42;;;;;;;37.05;21.92;;;4.90;99.90;;;;;;5001356;28;20425;-53
2022/03/30 01:20:12;;;;;;;33.35;24.08;;;4.90;99.90;;;;;;5001518;28;20557;-53
2022/03/30 01:22:40;;;;;;;34.88;23.98;;;4.80;99.90;;;;;;5001450;28;20278;-50
2022/03/30 01:25:09;;;;;;;33.42;21.83;;;4.70;99.90;;;;;;5001422;28;20202;-54
2022/03/30 01:27:38;;;;;;;38.05;23.60;;;4.60;99.90;;;;;;5001827;28;20433;-52
2022/03/30 01:33:05;;;;;;;35.67;21.23;;;4.60;99.90;;;;;;5001108;28;20263;-56
2022/03/30 01:35:34;;;;;;;46.00;25.00;;;4.60;99.90;;;;;;5001622;28;20278;-52
2022/03/30 01:38:01;;;;;;;35.00;22.05;;;4.60;99.90;;;;;;5001409;28;20403;-55
2022/03/30 01:40:29;;;;;;;33.90;21.98;;;4.60;99.90;;;;;;5001492;28;20224;-54
2022/03/30 01:42:56;;;;;;;38.95;22.05;;;4.60;99.90;;;;;;5001726;28;20254;-53
2022/03/30 01:45:28;;;;;;;40.83;21.38;;;4.50;99.90;;;;;;5000845;28;20218;-56
2022/03/30 01:48:00;;;;;;;39.30;22.40;;;4.40;99.90;;;;;;5001902;28;20461;-55
2022/03/30 01:50:29;;;;;;;33.58;21.02;;;4.40;99.90;;;;;;5021063;28;20203;-53
2022/03/30 01:52:57;;;;;;;50.33;27.02;;;4.30;99.90;;;;;;5021013;28;20246;-52
2022/03/30 01:55:24;;;;;;;43.60;24.23;;;4.30;99.90;;;;;;5021181;28;20203;-54
2022/03/30 01:57:51;;;;;;;36.67;23.60;;;4.30;99.90;;;;;;5021426;28;20208;-54
2022/03/30 02:00:19;;;;;;;37.30;23.00;;;4.40;99.90;;;;;;5019896;28;20528;-53
2022/03/30 02:02:46;;;;;;;40.05;25.58;;;4.40;99.90;;;;;;5020530;28;20232;-52
2022/03/30 02:05:16;;;;;;;41.25;25.30;;;4.30;99.90;;;;;;5020601;28;20204;-50
2022/03/30 02:07:44;;;;;;;42.67;26.45;;;4.30;99.90;;;;;;5020394;28;20206;-55
2022/03/30 02:10:12;;;;;;;46.20;27.13;;;4.20;99.90;;;;;;5020504;28;20210;-49
2022/03/30 02:12:39;;;;;;;51.15;31.83;;;4.30;99.90;;;;;;5020069;28;20496;-53
2022/03/30 02:15:09;;;;;;;65.70;36.40;;;4.30;99.90;;;;;;5020670;28;20203;-51
2022/03/30 02:17:38;;;;;;;65.65;33.80;;;4.30;99.90;;;;;;5020205;28;20223;-53
2022/03/30 02:20:07;;;;;;;77.38;40.25;;;4.30;99.90;;;;;;5020157;28;20391;-50
2022/03/30 02:22:35;;;;;;;67.40;38.75;;;4.30;99.90;;;;;;5020770;28;20287;-53
2022/03/30 02:25:03;;;;;;;81.97;41.00;;;4.30;99.90;;;;;;5021812;28;20203;-53
2022/03/30 02:27:30;;;;;;;65.43;35.75;;;4.30;99.90;;;;;;5025759;28;20203;-55
2022/03/30 02:29:57;;;;;;;67.78;37.60;;;4.30;99.90;;;;;;5022884;28;20265;-54
2022/03/30 02:32:24;;;;;;;65.43;35.30;;;4.30;99.90;;;;;;5021465;28;20231;-52
2022/03/30 02:34:52;;;;;;;66.35;32.63;;;4.10;99.90;;;;;;5020663;28;20245;-54
2022/03/30 02:37:20;;;;;;;59.05;33.88;;;4.10;99.90;;;;;;5019910;28;20222;-53
2022/03/30 02:39:47;;;;;;;54.17;32.45;;;4.10;99.90;;;;;;5019905;28;20225;-55
2022/03/30 02:42:14;;;;;;;59.40;30.40;;;4.00;99.90;;;;;;5019621;28;20277;-52
2022/03/30 02:44:42;;;;;;;44.40;27.25;;;4.10;99.90;;;;;;5019664;28;20568;-50
2022/03/30 02:47:09;;;;;;;46.67;31.40;;;4.10;99.90;;;;;;5019557;28;20322;-49
2022/03/30 02:49:38;;;;;;;46.80;30.30;;;4.10;99.90;;;;;;5005787;28;20204;-53
2022/03/30 02:52:06;;;;;;;50.42;28.80;;;4.10;99.90;;;;;;4999504;28;20254;-54
2022/03/30 02:54:33;;;;;;;47.22;31.17;;;4.10;99.90;;;;;;5000338;28;20210;-54
2022/03/30 02:57:01;;;;;;;43.55;27.70;;;4.10;99.90;;;;;;5000124;28;20237;-50
2022/03/30 02:59:28;;;;;;;57.05;31.45;;;4.00;99.90;;;;;;5000581;28;20240;-55
2022/03/30 03:01:58;;;;;;;53.60;29.58;;;3.90;99.90;;;;;;4999873;28;20234;-52
2022/03/30 03:04:25;;;;;;;47.20;27.70;;;3.90;99.90;;;;;;4999831;28;20199;-50
2022/03/30 03:06:53;;;;;;;44.58;28.83;;;3.80;99.90;;;;;;4999614;28;20249;-51
2022/03/30 03:09:20;;;;;;;43.60;27.30;;;3.80;99.90;;;;;;4999558;28;20498;-52
2022/03/30 03:11:47;;;;;;;45.58;31.95;;;3.80;99.90;;;;;;4999175;28;20318;-53
2022/03/30 03:14:18;;;;;;;45.20;27.85;;;3.80;99.90;;;;;;4999553;28;20270;-52
2022/03/30 03:16:45;;;;;;;53.70;32.72;;;3.80;99.90;;;;;;4999805;28;20199;-51
2022/03/30 03:19:12;;;;;;;59.80;34.45;;;3.80;99.90;;;;;;4999603;28;20254;-55
2022/03/30 03:21:40;;;;;;;59.50;35.63;;;3.80;99.90;;;;;;4999589;28;20219;-54
2022/03/30 03:24:07;;;;;;;56.40;31.73;;;3.80;99.90;;;;;;4999147;28;20551;-55
2022/03/30 03:26:34;;;;;;;44.35;29.02;;;3.80;99.90;;;;;;4999573;28;20211;-53
2022/03/30 03:29:02;;;;;;;53.97;31.55;;;3.80;99.90;;;;;;4999223;28;20204;-52
2022/03/30 03:31:30;;;;;;;53.17;29.45;;;3.70;99.90;;;;;;4999260;28;20219;-56
2022/03/30 03:33:57;;;;;;;49.53;28.83;;;3.70;99.90;;;;;;4999222;28;20243;-53
2022/03/30 03:36:25;;;;;;;47.58;30.65;;;3.70;99.90;;;;;;4999904;28;20207;-55
2022/03/30 03:38:53;;;;;;;52.30;30.48;;;3.70;99.90;;;;;;4999404;28;20208;-51
2022/03/30 03:41:20;;;;;;;57.50;28.45;;;3.70;99.90;;;;;;4999114;28;20224;-50
2022/03/30 03:43:48;;;;;;;54.13;27.17;;;3.60;99.90;;;;;;4999478;28;20531;-54
2022/03/30 03:46:15;;;;;;;44.58;26.70;;;3.60;99.90;;;;;;4999058;28;20266;-56
2022/03/30 03:48:42;;;;;;;40.20;24.77;;;3.70;99.90;;;;;;5006173;28;20270;-52
2022/03/30 03:51:10;;;;;;;48.10;26.13;;;3.60;99.90;;;;;;5018530;28;20259;-54
2022/03/30 03:53:37;;;;;;;42.85;28.10;;;3.50;99.90;;;;;;5018794;28;20221;-52
2022/03/30 03:56:05;;;;;;;48.17;28.48;;;3.60;99.90;;;;;;5018770;28;20197;-54
2022/03/30 03:58:33;;;;;;;49.72;27.52;;;3.50;99.90;;;;;;5019298;28;20269;-57
2022/03/30 04:01:00;;;;;;;41.67;29.77;;;3.60;99.90;;;;;;5018705;28;20220;-52
2022/03/30 04:03:30;;;;;;;48.88;28.17;;;3.60;99.90;;;;;;5018708;28;20520;-54
2022/03/30 04:05:58;;;;;;;50.03;28.75;;;3.60;99.90;;;;;;5018862;28;20485;-55
2022/03/30 04:08:25;;;;;;;53.67;28.98;;;3.60;99.90;;;;;;5011700;28;20205;-52
2022/03/30 04:10:52;;;;;;;48.50;27.77;;;3.50;99.90;;;;;;4998525;28;20215;-50
2022/03/30 04:13:20;;;;;;;45.67;28.05;;;3.50;99.90;;;;;;4998320;28;20254;-51
2022/03/30 04:15:48;;;;;;;37.63;23.52;;;3.50;99.90;;;;;;4998836;28;20219;-51
2022/03/30 04:18:21;;;;;;;41.70;25.83;;;3.50;99.90;;;;;;4998178;28;20199;-53
2022/03/30 04:20:48;;;;;;;50.33;27.30;;;3.50;99.90;;;;;;4999025;28;20230;-54
2022/03/30 04:23:15;;;;;;;52.40;29.52;;;3.50;99.90;;;;;;4998228;28;20260;-53
2022/03/30 04:25:42;;;;;;;45.80;25.95;;;3.40;99.90;;;;;;5002561;28;20212;-56
2022/03/30 04:28:09;;;;;;;48.45;27.80;;;3.40;99.90;;;;;;5002452;28;20433;-55
2022/03/30 04:30:36;;;;;;;47.80;28.00;;;3.20;99.90;;;;;;5002338;28;20209;-52
2022/03/30 04:33:03;;;;;;;49.38;28.90;;;3.30;99.90;;;;;;5002016;28;20223;-56
2022/03/30 04:35:31;;;;;;;47.45;29.23;;;3.40;99.90;;;;;;5002339;28;20281;-55
2022/03/30 04:37:59;;;;;;;52.42;28.65;;;3.40;99.90;;;;;;5002317;28;20226;-51
2022/03/30 04:40:28;;;;;;;50.03;30.08;;;3.40;99.90;;;;;;5002144;28;20221;-51
2022/03/30 04:42:59;;;;;;;43.47;27.73;;;3.50;99.90;;;;;;5001980;28;20222;-51
2022/03/30 04:45:26;;;;;;;49.00;28.50;;;3.40;99.90;;;;;;5002661;28;20211;-55
2022/03/30 04:47:54;;;;;;;40.22;26.15;;;3.50;99.90;;;;;;5002670;28;20203;-51
2022/03/30 04:50:25;;;;;;;47.53;27.08;;;3.60;99.90;;;;;;5018447;28;20207;-54
2022/03/30 04:52:52;;;;;;;51.83;28.15;;;3.60;99.90;;;;;;5002118;28;20227;-55
2022/03/30 04:55:20;;;;;;;37.47;26.20;;;3.60;99.90;;;;;;5001911;28;20203;-54
2022/03/30 04:57:48;;;;;;;48.58;27.15;;;3.70;99.90;;;;;;5002093;28;20216;-51
2022/03/30 05:00:15;;;;;;;56.45;29.38;;;3.80;99.90;;;;;;5000538;28;20211;-55
2022/03/30 05:02:43;;;;;;;50.28;28.88;;;3.90;99.90;;;;;;5001421;28;20294;-53
2022/03/30 05:05:11;;;;;;;54.58;30.70;;;4.00;99.90;;;;;;5001342;28;20207;-56
2022/03/30 05:07:38;;;;;;;54.15;31.80;;;4.20;99.90;;;;;;5001311;28;20266;-51
2022/03/30 05:10:09;;;;;;;53.80;30.10;;;4.30;99.90;;;;;;5000824;28;20208;-50
2022/03/30 05:12:37;;;;;;;47.63;28.63;;;4.50;99.90;;;;;;5001328;28;20241;-50
2022/03/30 05:15:09;;;;;;;55.13;30.00;;;4.60;99.90;;;;;;5000916;28;20424;-51
2022/03/30 05:17:40;;;;;;;53.20;32.15;;;4.90;99.90;;;;;;5000061;28;20231;-50
2022/03/30 05:20:08;;;;;;;46.65;26.92;;;5.10;99.90;;;;;;4999935;28;20204;-56
2022/03/30 05:22:35;;;;;;;42.90;24.83;;;5.20;99.90;;;;;;5006239;28;20232;-51
2022/03/30 05:25:03;;;;;;;57.30;26.08;;;5.30;99.90;;;;;;5001210;28;20205;-54
2022/03/30 05:27:30;;;;;;;48.05;27.40;;;5.40;99.90;;;;;;5001457;28;20243;-53
2022/03/30 05:29:57;;;;;;;38.95;23.45;;;5.50;99.90;;;;;;5001121;28;20512;-54
2022/03/30 05:32:24;;;;;;;43.28;24.63;;;5.90;99.90;;;;;;5001015;28;20451;-55
2022/03/30 05:34:51;;;;;;;45.92;24.98;;;5.90;99.90;;;;;;5000688;28;20201;-51
2022/03/30 05:37:27;;;;;;;43.42;25.90;;;6.00;99.90;;;;;;5000747;28;20228;-52
2022/03/30 05:39:58;;;;;;;43.00;25.20;;;6.20;99.90;;;;;;5000069;28;20575;-52
2022/03/30 05:42:42;;;;;;;49.78;26.13;;;6.20;99.90;;;;;;5000643;28;20221;-55
2022/03/30 05:45:17;;;;;;;40.90;23.08;;;6.30;99.90;;;;;;5000231;28;20497;-53
2022/03/30 05:47:44;;;;;;;32.85;23.50;;;6.80;99.90;;;;;;5001183;28;20421;-54
2022/03/30 05:50:11;;;;;;;41.42;24.17;;;6.80;99.90;;;;;;5019280;28;20288;-51
2022/03/30 05:52:38;;;;;;;34.55;22.48;;;6.90;99.90;;;;;;5020042;28;20232;-54
2022/03/30 05:55:08;;;;;;;34.42;20.65;;;6.90;99.90;;;;;;5020043;28;20204;-53
2022/03/30 05:57:36;;;;;;;38.00;23.55;;;7.00;99.90;;;;;;5005612;28;20197;-53
2022/03/30 06:00:06;;;;;;;38.72;22.92;;;7.20;99.90;;;;;;4999372;28;20516;-54
2022/03/30 06:02:33;;;;;;;40.55;24.20;;;7.30;99.90;;;;;;4997816;28;20233;-53
2022/03/30 06:05:00;;;;;;;37.67;22.20;;;7.00;99.90;;;;;;4999819;28;20547;-56
2022/03/30 06:07:31;;;;;;;41.05;23.00;;;7.00;99.90;;;;;;5000219;28;20625;-52
2022/03/30 06:10:04;;;;;;;34.22;20.77;;;7.10;99.90;;;;;;4998406;28;20255;-54
2022/03/30 06:12:31;;;;;;;35.53;23.58;;;7.30;99.90;;;;;;4999600;28;20237;-53
2022/03/30 06:14:58;;;;;;;38.53;23.95;;;7.50;99.90;;;;;;4999701;28;20264;-56
2022/03/30 06:17:32;;;;;;;42.53;25.55;;;7.70;99.90;;;;;;4997606;28;20206;-55
2022/03/30 06:20:03;;;;;;;47.38;24.92;;;7.60;99.90;;;;;;4999994;28;20201;-56
2022/03/30 06:22:31;;;;;;;41.75;23.17;;;7.60;99.90;;;;;;5000580;28;20288;-56
2022/03/30 06:24:59;;;;;;;52.88;27.35;;;7.80;99.90;;;;;;5000258;28;20231;-56
2022/03/30 06:27:27;;;;;;;49.60;22.13;;;8.00;99.90;;;;;;5000046;28;20202;-54
2022/03/30 06:29:54;;;;;;;45.90;25.85;;;8.20;99.90;;;;;;5000602;28;20433;-53
2022/03/30 06:32:21;;;;;;;48.80;23.38;;;8.40;99.90;;;;;;4999495;28;20493;-56
2022/03/30 06:34:48;;;;;;;41.38;23.50;;;8.80;99.90;;;;;;5000146;28;20206;-56
2022/03/30 06:37:16;;;;;;;35.58;21.63;;;9.20;99.90;;;;;;4999521;28;20199;-56
2022/03/30 06:39:43;;;;;;;37.78;23.65;;;9.80;99.90;;;;;;4999894;28;20503;-55
2022/03/30 06:42:10;;;;;;;54.22;26.27;;;10.40;99.90;;;;;;4999722;28;20223;-55
2022/03/30 06:44:38;;;;;;;34.72;24.27;;;11.10;99.90;;;;;;4999421;28;20204;-55
2022/03/30 06:47:06;;;;;;;35.80;22.48;;;11.90;99.90;;;;;;4999403;28;20201;-51
2022/03/30 06:49:35;;;;;;;32.95;23.45;;;12.10;99.90;;;;;;5013247;28;20204;-55
2022/03/30 06:52:08;;;;;;;33.78;25.27;;;12.40;99.90;;;;;;5019500;28;20323;-57
2022/03/30 06:54:37;;;;;;;33.85;21.55;;;12.50;99.90;;;;;;5019345;28;20279;-57
2022/03/30 06:57:06;;;;;;;35.30;25.23;;;12.60;99.90;;;;;;5018938;28;20197;-57
2022/03/30 06:59:33;;;;;;;34.70;22.38;;;13.50;99.90;;;;;;5019041;28;20398;-56
2022/03/30 07:02:01;;;;;;;31.48;21.00;;;13.90;99.90;;;;;;5009372;28;20221;-57
2022/03/30 07:04:33;;;;;;;28.83;19.08;;;14.90;99.90;;;;;;4999682;28;20213;-56
2022/03/30 07:12:31;;;;;;;32.20;21.00;;;16.70;99.90;;;;;;4999374;28;20456;-56
2022/03/30 07:14:59;;;;;;;36.35;23.17;;;15.20;99.90;;;;;;4998612;28;20633;-54
2022/03/30 07:17:26;;;;;;;34.03;21.77;;;14.60;99.90;;;;;;4993298;28;20406;-54
2022/03/30 07:19:54;;;;;;;36.13;23.17;;;14.90;99.90;;;;;;4999912;28;20412;-57
2022/03/30 07:22:21;;;;;;;35.80;23.20;;;15.10;99.90;;;;;;4999109;28;20461;-54
2022/03/30 07:24:48;;;;;;;35.87;24.07;;;15.60;99.90;;;;;;4999921;28;20436;-56
2022/03/30 07:27:15;;;;;;;40.17;22.90;;;15.40;99.90;;;;;;4999647;28;20512;-54
2022/03/30 07:29:43;;;;;;;50.27;22.33;;;16.20;99.90;;;;;;4999417;28;20441;-55
2022/03/30 07:32:19;;;;;;;29.80;22.23;;;17.10;99.90;;;;;;4999271;28;20460;-52
2022/03/30 07:34:54;;;;;;;34.20;21.70;;;18.40;99.30;;;;;;4998932;28;20469;-53
2022/03/30 07:37:22;;;;;;;29.77;22.90;;;19.00;97.40;;;;;;4999299;28;20456;-57
2022/03/30 07:39:49;;;;;;;32.43;20.63;;;19.00;95.30;;;;;;4999330;28;20532;-55
2022/03/30 07:42:16;;;;;;;30.67;19.90;;;18.40;95.70;;;;;;4999158;28;20454;-57
2022/03/30 07:44:46;;;;;;;34.93;20.03;;;17.70;96.00;;;;;;4998867;28;20427;-56
2022/03/30 07:47:13;;;;;;;33.47;21.60;;;16.20;97.70;;;;;;4999802;28;20448;-56
2022/03/30 07:49:41;;;;;;;29.63;20.43;;;16.60;98.30;;;;;;5013994;28;20755;-53
2022/03/30 07:52:09;;;;;;;29.27;21.00;;;18.30;95.60;;;;;;5018400;28;20838;-55
2022/03/30 07:54:36;;;;;;;32.43;21.00;;;17.80;94.30;;;;;;5018628;28;20637;-56
2022/03/30 07:57:03;;;;;;;31.07;20.23;;;18.00;94.20;;;;;;5019850;28;20452;-57
2022/03/30 07:59:30;;;;;;;30.60;20.43;;;18.00;93.90;;;;;;5022536;28;20408;-54
2022/03/30 08:01:58;;;;;;;32.23;18.23;;;17.80;94.00;;;;;;5013037;28;20794;-56
2022/03/30 08:04:26;;;;;;;25.33;17.73;;;17.10;94.30;;;;;;5002968;28;20424;-56
2022/03/30 08:06:54;;;;;;;26.20;18.40;;;16.50;95.60;;;;;;5003142;28;20453;-56
2022/03/30 08:09:20;;;;;;;30.13;18.77;;;16.60;94.90;;;;;;5002605;28;20416;-52
2022/03/30 08:11:51;;;;;;;24.43;16.03;;;17.20;93.70;;;;;;5002824;28;20428;-55
2022/03/30 08:14:25;;;;;;;23.97;16.53;;;17.20;93.20;;;;;;5002172;28;20473;-55
2022/03/30 08:16:53;;;;;;;20.93;16.00;;;16.50;93.60;;;;;;5001717;28;20405;-52
2022/03/30 08:19:20;;;;;;;27.83;17.97;;;15.80;95.50;;;;;;5002064;28;20412;-52
2022/03/30 08:24:34;;;;;;;29.73;18.17;;;17.70;91.80;;;;;;5001469;28;20442;-54
2022/03/30 08:27:01;;;;;;;26.50;17.90;;;18.20;91.30;;;;;;5002511;28;20406;-55
2022/03/30 08:29:28;;;;;;;21.03;16.50;;;18.10;90.30;;;;;;5002536;28;20497;-54
2022/03/30 08:31:55;;;;;;;30.47;17.57;;;18.30;90.70;;;;;;5002258;28;20497;-55
2022/03/30 08:34:25;;;;;;;28.87;17.40;;;18.50;90.00;;;;;;5002503;28;20846;-51
2022/03/30 08:36:52;;;;;;;24.30;18.37;;;18.30;90.30;;;;;;5002687;28;20417;-55
2022/03/30 08:39:20;;;;;;;30.53;17.47;;;19.40;86.70;;;;;;5002594;28;20443;-55
2022/03/30 08:41:48;;;;;;;33.17;18.03;;;20.70;82.80;;;;;;5002365;28;20422;-50
2022/03/30 08:44:17;;;;;;;30.90;20.87;;;22.00;77.70;;;;;;5002657;28;20483;-50
2022/03/30 08:46:45;;;;;;;23.13;18.70;;;21.30;75.50;;;;;;5002279;28;20436;-54
2022/03/30 08:49:14;;;;;;;24.73;18.80;;;21.20;75.80;;;;;;5002187;28;20423;-55
2022/03/30 08:51:50;;;;;;;25.43;18.00;;;20.80;75.00;;;;;;5001943;28;20456;-56
2022/03/30 08:54:18;;;;;;;28.67;18.13;;;19.80;76.90;;;;;;5002046;28;20510;-54
2022/03/30 08:56:47;;;;;;;25.30;17.97;;;18.80;79.80;;;;;;5001875;28;20410;-57
2022/03/30 08:59:22;;;;;;;20.33;17.17;;;18.40;81.50;;;;;;5001753;28;20443;-59
2022/03/30 09:01:52;;;;;;;27.33;17.60;;;18.50;82.20;;;;;;5002038;28;20455;-53
2022/03/30 09:04:21;;;;;;;22.60;17.73;;;19.00;80.40;;;;;;5001451;28;20462;-56
2022/03/30 09:06:56;;;;;;;27.70;16.80;;;18.10;80.80;;;;;;5001831;28;20417;-56
2022/03/30 09:09:41;;;;;;;24.93;16.70;;;16.50;85.00;;;;;;5001395;28;20425;-53
2022/03/30 09:12:10;;;;;;;26.90;18.27;;;14.70;90.70;;;;;;5001865;28;20429;-55
2022/03/30 09:14:42;;;;;;;23.33;17.83;;;15.30;90.50;;;;;;5002240;28;20810;-56
2022/03/30 09:17:11;;;;;;;27.67;19.53;;;16.10;88.60;;;;;;5001729;28;20449;-58
2022/03/30 09:19:41;;;;;;;28.73;20.50;;;16.90;87.20;;;;;;5001455;28;20519;-54
2022/03/30 09:22:11;;;;;;;28.37;18.23;;;17.30;85.80;;;;;;5001780;28;20448;-55
2022/03/30 09:24:41;;;;;;;25.90;18.30;;;18.00;83.70;;;;;;5002331;28;20432;-54
2022/03/30 09:27:09;;;;;;;27.87;19.63;;;17.30;84.00;;;;;;5001360;28;20439;-53
2022/03/30 09:29:37;;;;;;;27.10;19.43;;;17.50;84.40;;;;;;5001777;28;20413;-56
2022/03/30 09:32:25;;;;;;;24.93;19.07;;;17.70;82.90;;;;;;5001139;28;20429;-57
2022/03/30 09:34:56;;;;;;;25.83;17.03;;;17.30;83.80;;;;;;5001644;28;20471;-52
2022/03/30 09:37:23;;;;;;;27.47;19.73;;;16.50;84.50;;;;;;5001235;28;20463;-57
2022/03/30 09:39:50;;;;;;;22.67;16.60;;;16.40;86.30;;;;;;5001058;28;20416;-57
2022/03/30 09:42:18;;;;;;;27.47;18.80;;;16.40;85.60;;;;;;5000831;28;20425;-57
2022/03/30 09:44:54;;;;;;;20.83;16.70;;;16.30;86.10;;;;;;5001106;28;20416;-55
2022/03/30 09:47:23;;;;;;;28.77;17.30;;;16.50;84.50;;;;;;5000936;28;20409;-57
2022/03/30 09:49:53;;;;;;;30.37;17.97;;;16.40;84.60;;;;;;5017095;28;20419;-59
2022/03/30 09:52:23;;;;;;;24.50;17.40;;;16.20;85.70;;;;;;5020242;28;20831;-57
2022/03/30 09:55:00;;;;;;;27.17;17.80;;;15.20;88.40;;;;;;5020515;28;20447;-53
2022/03/30 09:57:44;;;;;;;21.03;15.80;;;14.70;89.80;;;;;;5020460;28;20751;-54
2022/03/30 10:00:14;;;;;;;22.75;16.65;;;14.10;90.70;;;;;;5020195;28;20405;-56
2022/03/30 10:02:50;;;;;;;27.75;18.35;;;13.40;92.00;;;;;;5020444;28;20547;-52
2022/03/30 10:05:19;;;;;;;26.40;18.38;;;13.60;92.30;;;;;;5020003;28;20508;-52
2022/03/30 10:07:47;;;;;;;27.00;17.27;;;13.60;92.20;;;;;;5020458;28;20529;-53
2022/03/30 10:10:17;;;;;;;23.75;17.92;;;13.80;92.10;;;;;;5020391;28;20208;-53
2022/03/30 10:12:44;;;;;;;27.40;19.63;;;14.30;91.50;;;;;;5020506;28;20269;-56
2022/03/30 10:15:12;;;;;;;28.00;17.27;;;14.80;91.30;;;;;;5020693;28;20214;-53
2022/03/30 10:17:39;;;;;;;37.17;20.60;;;15.10;90.80;;;;;;5020456;28;20406;-54
2022/03/30 10:20:08;;;;;;;27.93;18.60;;;15.30;90.30;;;;;;5018471;28;20437;-56
2022/03/30 10:22:59;;;;;;;32.40;19.97;;;15.10;90.60;;;;;;5021230;28;20436;-54
2022/03/30 10:25:58;;;;;;;26.43;17.57;;;14.40;90.90;;;;;;5020786;28;20459;-55
2022/03/30 10:28:40;;;;;;;27.98;21.55;;;14.30;91.40;;;;;;5020264;28;20437;-55
2022/03/30 10:31:08;;;;;;;31.10;20.70;;;14.40;91.60;;;;;;5019837;28;20246;-56
2022/03/30 10:33:42;;;;;;;39.28;21.85;;;14.70;91.40;;;;;;5019877;28;20468;-57
2022/03/30 10:36:26;;;;;;;22.00;14.57;;;14.70;91.30;;;;;;5019887;28;20371;-54
2022/03/30 10:39:27;;;;;;;28.63;18.95;;;14.40;91.50;;;;;;5019827;28;20436;-52
2022/03/30 10:42:14;;;;;;;24.48;16.50;;;14.40;91.80;;;;;;5019115;28;20215;-51
2022/03/30 10:44:47;;;;;;;20.00;13.10;;;14.50;91.60;;;;;;5020139;28;20445;-53
2022/03/30 10:47:23;;;;;;;22.98;15.45;;;14.40;91.60;;;;;;5019680;28;20669;-53
2022/03/30 10:49:54;;;;;;;24.43;14.00;;;14.70;91.70;;;;;;5003966;28;20518;-53
2022/03/30 10:52:32;;;;;;;24.50;14.23;;;15.00;91.10;;;;;;4999760;28;20448;-55
2022/03/30 10:55:14;;;;;;;28.17;14.13;;;15.40;90.50;;;;;;5000371;28;20233;-55
2022/03/30 10:57:51;;;;;;;17.37;13.93;;;15.60;90.00;;;;;;5000102;28;20681;-56
2022/03/30 11:00:24;;;;;;;22.53;15.77;;;15.70;90.10;;;;;;4999860;28;20467;-56
2022/03/30 11:02:52;;;;;;;26.03;14.73;;;15.70;90.00;;;;;;5000103;28;20449;-55
2022/03/30 11:05:28;;;;;;;31.73;18.00;;;15.40;90.20;;;;;;4999409;28;20465;-54
2022/03/30 11:07:56;;;;;;;27.60;16.13;;;15.20;90.10;;;;;;4999510;28;20436;-54
2022/03/30 11:10:29;;;;;;;26.50;17.53;;;15.00;90.10;;;;;;4999421;28;20418;-51
2022/03/30 11:13:02;;;;;;;19.45;16.75;;;14.70;90.50;;;;;;5000119;28;20422;-54
2022/03/30 11:16:04;;;;;;;30.63;16.33;;;14.80;90.40;;;;;;4999549;28;20234;-57
2022/03/30 11:18:32;;;;;;;21.90;14.33;;;14.90;90.60;;;;;;4999695;28;20670;-56
2022/03/30 11:21:26;;;;;;;37.43;18.43;;;15.30;90.10;;;;;;4999560;28;20605;-54
2022/03/30 11:24:18;;;;;;;21.63;16.57;;;15.80;89.50;;;;;;4998201;28;20456;-56
2022/03/30 11:26:48;;;;;;;26.17;18.87;;;16.20;87.90;;;;;;4999020;28;20447;-54
2022/03/30 11:29:52;;;;;;;25.97;16.90;;;16.40;87.00;;;;;;4999678;28;20472;-57
2022/03/30 11:32:22;;;;;;;32.97;18.30;;;16.80;86.00;;;;;;5001307;28;20511;-55
2022/03/30 11:34:57;;;;;;;28.03;19.30;;;16.60;86.20;;;;;;5003803;28;20469;-52
2022/03/30 11:37:36;;;;;;;22.57;14.77;;;16.90;85.70;;;;;;5003544;28;20416;-56
2022/03/30 11:40:18;;;;;;;25.13;16.30;;;17.10;83.10;;;;;;5003672;28;20706;-53
2022/03/30 11:42:56;;;;;;;28.27;18.10;;;16.30;84.10;;;;;;5003643;28;20468;-57
2022/03/30 11:45:43;;;;;;;19.37;15.43;;;16.10;84.70;;;;;;5003761;28;20588;-55
2022/03/30 11:48:12;;;;;;;22.60;16.67;;;16.00;85.20;;;;;;5005815;28;20412;-55
2022/03/30 11:50:56;;;;;;;23.03;18.27;;;15.70;85.60;;;;;;5022974;28;20435;-52
2022/03/30 11:53:32;;;;;;;22.93;16.23;;;15.20;87.10;;;;;;5022475;28;20436;-55
2022/03/30 11:56:05;;;;;;;30.10;18.93;;;15.20;87.40;;;;;;5021432;28;20436;-58
2022/03/30 11:58:36;;;;;;;23.73;18.77;;;15.50;87.50;;;;;;5023078;28;20420;-56
2022/03/30 12:01:08;;;;;;;29.90;16.20;;;15.60;87.70;;;;;;5022843;28;20515;-55
2022/03/30 12:03:36;;;;;;;24.90;19.37;;;15.60;87.10;;;;;;5022689;28;20429;-55
2022/03/30 12:06:05;;;;;;;26.23;16.93;;;15.60;87.80;;;;;;5022290;28;20718;-55
2022/03/30 12:08:44;;;;;;;26.87;18.17;;;15.50;88.00;;;;;;5022426;28;20444;-55
2022/03/30 12:11:12;;;;;;;21.83;16.40;;;15.20;87.70;;;;;;5021857;28;20781;-55
2022/03/30 12:13:39;;;;;;;20.17;16.57;;;15.00;88.80;;;;;;5021618;28;20428;-53
2022/03/30 12:16:13;;;;;;;22.23;17.77;;;15.00;88.80;;;;;;5022021;28;20406;-53
2022/03/30 12:18:52;;;;;;;28.60;15.90;;;14.90;88.70;;;;;;5022310;28;20652;-56
2022/03/30 12:21:24;;;;;;;22.27;15.07;;;14.80;89.10;;;;;;5021673;28;20560;-57
2022/03/30 12:23:58;;;;;;;24.77;15.55;;;14.80;88.90;;;;;;5022450;28;20202;-58
2022/03/30 12:26:50;;;;;;;19.42;15.23;;;15.00;89.50;;;;;;5021242;28;20234;-56
2022/03/30 12:29:17;;;;;;;21.33;15.60;;;14.90;89.40;;;;;;5021970;28;20200;-52
2022/03/30 12:31:54;;;;;;;22.05;16.40;;;14.80;89.00;;;;;;5022272;28;20649;-52
2022/03/30 12:34:24;;;;;;;23.60;15.15;;;14.20;90.20;;;;;;5021929;28;20231;-54
2022/03/30 12:37:01;;;;;;;19.83;15.27;;;14.00;90.90;;;;;;5022561;28;20635;-57
2022/03/30 12:39:44;;;;;;;18.67;15.77;;;13.70;91.10;;;;;;5022353;28;20203;-53
2022/03/30 12:42:26;;;;;;;31.00;18.67;;;13.60;91.60;;;;;;5021810;28;20284;-54
2022/03/30 12:44:56;;;;;;;32.38;19.90;;;13.60;91.70;;;;;;5021040;28;20233;-57
2022/03/30 12:47:29;;;;;;;27.45;18.60;;;13.80;91.30;;;;;;5021992;28;20201;-55
2022/03/30 12:49:59;;;;;;;22.75;16.58;;;13.90;91.20;;;;;;5004758;28;20249;-58
2022/03/30 12:52:34;;;;;;;20.17;14.77;;;13.90;91.20;;;;;;5002102;28;20540;-54
2022/03/30 12:55:24;;;;;;;27.48;16.48;;;13.90;91.60;;;;;;5001891;28;20228;-55
2022/03/30 12:58:07;;;;;;;20.25;17.13;;;13.90;91.80;;;;;;5002126;28;20205;-58
2022/03/30 13:00:40;;;;;;;17.63;14.30;;;13.40;91.90;;;;;;5001899;28;20514;-58